createdAt,value
2023-01-12T00:02:49.199Z,99313.52
2023-01-12T00:06:47.223Z,99317.72
2023-01-12T00:10:45.141Z,99326.92
2023-01-12T00:14:44.615Z,99335.67
2023-01-12T00:18:42.453Z,99332.13
2023-01-12T00:22:40.327Z,99332.69
2023-01-12T00:26:38.824Z,99339.02
2023-01-12T00:30:36.255Z,99337.80
2023-01-12T00:34:34.123Z,99342.02
2023-01-12T00:38:32.172Z,99349.13
2023-01-12T00:42:48.234Z,99346.55
2023-01-12T00:46:47.158Z,99347.67
2023-01-12T00:50:45.271Z,99336.80
2023-01-12T00:54:43.186Z,99340.07
2023-01-12T00:58:43.116Z,99344.23
2023-01-12T01:02:42.120Z,99353.21
2023-01-12T01:06:41.118Z,99345.27
2023-01-12T01:10:39.124Z,99349.26
2023-01-12T01:14:37.067Z,99353.15
2023-01-12T01:18:35.117Z,99350.39
2023-01-12T01:22:33.057Z,99347.27
2023-01-12T01:26:33.160Z,99341.29
2023-01-12T01:30:31.146Z,99337.80
2023-01-12T01:34:30.041Z,99335.49
2023-01-12T01:38:28.121Z,99334.80
2023-01-12T01:42:35.111Z,99328.85
2023-01-12T01:46:40.111Z,99338.24
2023-01-12T01:50:52.045Z,99342.30
2023-01-12T01:54:58.536Z,99339.13
2023-01-12T01:59:00.099Z,99340.55
2023-01-12T02:03:00.010Z,99343.73
2023-01-12T02:06:58.022Z,99350.76
2023-01-12T02:10:55.994Z,99356.92
2023-01-12T02:15:13.105Z,99355.34
2023-01-12T02:19:46.989Z,99350.20
2023-01-12T02:24:16.145Z,99353.73
2023-01-12T02:28:38.034Z,99340.95
2023-01-12T02:32:41.040Z,99340.23
2023-01-12T02:37:10.114Z,99342.20
2023-01-12T02:41:50.992Z,99338.92
2023-01-12T02:46:08.948Z,99337.84
2023-01-12T02:50:10.952Z,99336.34
2023-01-12T02:54:17.971Z,99334.09
2023-01-12T02:58:17.945Z,99334.07
2023-01-12T03:02:35.947Z,99331.31
2023-01-12T03:06:33.931Z,99331.56
2023-01-12T03:10:40.907Z,99336.68
2023-01-12T03:14:38.907Z,99336.66
2023-01-12T03:18:42.912Z,99342.13
2023-01-12T03:22:40.927Z,99341.09
2023-01-12T03:26:41.901Z,99333.27
2023-01-12T03:30:46.984Z,99326.08
2023-01-12T03:34:46.910Z,99321.95
2023-01-12T03:38:59.977Z,99323.88
2023-01-12T03:43:03.892Z,99332.59
2023-01-12T03:47:20.881Z,99333.12
2023-01-12T03:51:31.973Z,99334.89
2023-01-12T03:55:32.001Z,99337.70
2023-01-12T03:59:29.854Z,99335.59
2023-01-12T04:03:30.918Z,99331.47
2023-01-12T04:07:29.863Z,99330.48
2023-01-12T04:11:44.893Z,99335.62
2023-01-12T04:15:44.874Z,99339.09
2023-01-12T04:19:42.907Z,99341.73
2023-01-12T04:23:40.901Z,99343.79
2023-01-12T04:27:38.868Z,99339.48
2023-01-12T04:31:36.976Z,99339.43
2023-01-12T04:35:34.825Z,99344.38
2023-01-12T04:39:32.873Z,99345.46
2023-01-12T04:43:30.899Z,99342.10
2023-01-12T04:47:28.969Z,99345.52
2023-01-12T04:51:26.832Z,99345.38
2023-01-12T04:55:24.777Z,99342.13
2023-01-12T04:59:22.836Z,99343.75
2023-01-12T05:03:20.883Z,99349.08
2023-01-12T05:07:18.804Z,99352.33
2023-01-12T05:11:16.758Z,99358.86
2023-01-12T05:15:14.867Z,99359.17
2023-01-12T05:19:12.805Z,99360.27
2023-01-12T05:23:10.767Z,99362.68
2023-01-12T05:27:08.728Z,99364.13
2023-01-12T05:31:06.826Z,99374.83
2023-01-12T05:35:04.725Z,99381.30
2023-01-12T05:39:02.724Z,99383.95
2023-01-12T05:43:18.715Z,99384.95
2023-01-12T05:47:18.827Z,99390.36
2023-01-12T05:51:17.828Z,99398.66
2023-01-12T05:55:15.743Z,99404.93
2023-01-12T05:59:15.702Z,99406.86
2023-01-12T06:03:13.714Z,99408.77
2023-01-12T06:07:11.691Z,99411.03
2023-01-12T06:11:09.802Z,99415.98
2023-01-12T06:15:07.742Z,99412.84
2023-01-12T06:19:05.805Z,99420.57
2023-01-12T06:23:03.807Z,99417.79
2023-01-12T06:27:01.666Z,99420.65
2023-01-12T06:30:59.837Z,99421.17
2023-01-12T06:34:59.550Z,99419.00
2023-01-12T06:38:59.617Z,99424.48
2023-01-12T06:42:57.690Z,99424.60
2023-01-12T06:46:55.682Z,99422.30
2023-01-12T06:50:53.648Z,99421.97
2023-01-12T06:54:51.639Z,99426.70
2023-01-12T06:58:49.670Z,99431.48
2023-01-12T07:02:27.161Z,99435.73
2023-01-12T07:05:51.181Z,99438.46
2023-01-12T07:09:15.416Z,99449.84
2023-01-12T07:12:39.741Z,99456.17
2023-01-12T07:16:03.831Z,99462.20
2023-01-12T07:19:27.746Z,99463.36
2023-01-12T07:22:51.725Z,99460.27
2023-01-12T07:26:15.698Z,99458.13
2023-01-12T07:29:39.840Z,99461.10
2023-01-12T07:33:08.470Z,99459.63
2023-01-12T07:36:32.601Z,99463.86
2023-01-12T07:39:58.993Z,99467.70
2023-01-12T07:43:23.793Z,99470.09
2023-01-12T07:46:47.891Z,99476.34
2023-01-12T07:50:13.096Z,99486.88
2023-01-12T07:53:37.185Z,99487.34
2023-01-12T07:57:01.056Z,99491.64
2023-01-12T08:00:25.656Z,99495.45
2023-01-12T08:03:49.619Z,99499.29
2023-01-12T08:07:15.095Z,99505.99
2023-01-12T08:10:39.415Z,99502.61
2023-01-12T08:14:05.576Z,99509.05
2023-01-12T08:17:29.705Z,99509.53
2023-01-12T08:20:56.401Z,99502.48
2023-01-12T08:24:26.123Z,99496.52
2023-01-12T08:27:53.021Z,99496.05
2023-01-12T08:34:54.965Z,99497.92
2023-01-12T08:38:19.397Z,99492.98
2023-01-12T08:41:45.278Z,99489.48
2023-01-12T08:45:09.421Z,99485.38
2023-01-12T08:48:33.550Z,99488.52
2023-01-12T08:51:58.571Z,99488.73
2023-01-12T08:55:22.588Z,99497.73
2023-01-12T08:58:46.591Z,99503.23
2023-01-12T09:02:16.068Z,99500.05
2023-01-12T09:05:40.341Z,99503.50
2023-01-12T09:09:10.151Z,99509.99
2023-01-12T09:12:34.128Z,99506.92
2023-01-12T09:16:12.219Z,99514.56
2023-01-12T09:19:37.312Z,99511.14
2023-01-12T09:23:05.497Z,99508.39
2023-01-12T09:26:32.569Z,99503.81
2023-01-12T09:29:56.668Z,99505.42
2023-01-12T09:33:24.014Z,99501.80
2023-01-12T09:36:50.077Z,99503.53
2023-01-12T09:40:19.149Z,99500.96
2023-01-12T09:44:01.323Z,99496.27
2023-01-12T09:47:40.206Z,99495.64
2023-01-12T09:51:18.784Z,99488.06
2023-01-12T09:54:43.267Z,99483.04
2023-01-12T09:58:31.372Z,99482.18
2023-01-12T10:01:57.091Z,99480.58
2023-01-12T10:05:39.682Z,99479.08
2023-01-12T10:09:13.465Z,99472.00
2023-01-12T10:12:42.275Z,99469.73
2023-01-12T10:16:11.667Z,99471.52
2023-01-12T10:19:56.892Z,99472.18
2023-01-12T10:23:24.794Z,99469.43
2023-01-12T10:26:58.142Z,99456.99
2023-01-12T10:30:29.655Z,99453.11
2023-01-12T10:34:07.071Z,99454.13
2023-01-12T10:37:31.561Z,99455.27
2023-01-12T10:41:17.253Z,99460.05
2023-01-12T10:44:41.292Z,99456.27
2023-01-12T10:48:18.185Z,99453.21
2023-01-12T10:51:59.366Z,99452.32
2023-01-12T10:55:25.340Z,99448.67
2023-01-12T10:59:25.109Z,99448.23
2023-01-12T11:02:49.331Z,99435.19
2023-01-12T11:06:30.667Z,99434.55
2023-01-12T11:09:55.325Z,99424.11
2023-01-12T11:13:33.194Z,99421.13
2023-01-12T11:17:12.295Z,99427.70
2023-01-12T11:20:45.199Z,99427.70
2023-01-12T11:24:40.229Z,99438.61
2023-01-12T11:28:29.217Z,99433.83
2023-01-12T11:31:59.358Z,99423.73
2023-01-12T11:35:45.944Z,99427.21
2023-01-12T11:39:16.091Z,99427.20
2023-01-12T11:42:58.494Z,99425.09
2023-01-12T11:46:42.665Z,99425.36
2023-01-12T11:50:20.990Z,99431.55
2023-01-12T11:53:46.153Z,99435.35
2023-01-12T11:57:29.086Z,99435.07
2023-01-12T12:01:17.476Z,99432.98
2023-01-12T12:05:21.963Z,99429.40
2023-01-12T12:09:19.953Z,99422.94
2023-01-12T12:12:43.933Z,99427.60
2023-01-12T12:16:11.461Z,99431.10
2023-01-12T12:20:09.875Z,99435.95
2023-01-12T12:23:44.920Z,99436.14
2023-01-12T12:27:34.391Z,99442.89
2023-01-12T12:31:13.960Z,99446.98
2023-01-12T12:35:02.641Z,99450.34
2023-01-12T12:39:04.343Z,99447.50
2023-01-12T12:43:23.446Z,99439.58
2023-01-12T12:47:00.302Z,99422.84
2023-01-12T12:50:32.668Z,99419.43
2023-01-12T12:53:57.310Z,99422.53
2023-01-12T12:57:21.168Z,99425.20
2023-01-12T13:00:46.845Z,99421.20
2023-01-12T13:04:11.910Z,99416.02
2023-01-12T13:07:41.946Z,99411.81
2023-01-12T13:11:06.812Z,99407.75
2023-01-12T13:14:39.638Z,99404.91
2023-01-12T13:18:05.267Z,99401.70
2023-01-12T13:21:56.259Z,99405.59
2023-01-12T13:25:23.136Z,99407.84
2023-01-12T13:28:47.050Z,99412.00
2023-01-12T13:32:33.137Z,99410.96
2023-01-12T13:36:02.102Z,99396.64
2023-01-12T13:39:26.182Z,99394.43
2023-01-12T13:43:09.652Z,99390.88
2023-01-12T13:46:39.797Z,99390.62
2023-01-12T13:50:05.231Z,99401.14
2023-01-12T13:53:32.298Z,99399.88
2023-01-12T13:57:02.935Z,99390.14
2023-01-12T14:00:27.626Z,99391.67
2023-01-12T14:04:22.894Z,99383.63
2023-01-12T14:07:56.002Z,99378.05
2023-01-12T14:11:28.963Z,99382.42
2023-01-12T14:15:44.458Z,99378.12
2023-01-12T14:19:29.418Z,99383.95
2023-01-12T14:23:15.153Z,99383.64
2023-01-12T14:26:39.193Z,99384.23
2023-01-12T14:30:03.400Z,99385.50
2023-01-12T14:38:07.054Z,99380.53
2023-01-12T14:42:29.062Z,99382.98
2023-01-12T14:46:37.029Z,99385.16
2023-01-12T14:50:36.228Z,99387.60
2023-01-12T14:54:38.111Z,99388.55
2023-01-12T14:58:36.078Z,99381.42
2023-01-12T15:02:43.974Z,99378.66
2023-01-12T15:06:42.069Z,99380.21
2023-01-12T15:10:53.021Z,99374.17
2023-01-12T15:14:51.144Z,99366.96
2023-01-12T15:19:06.027Z,99367.16
2023-01-12T15:23:21.030Z,99371.89
2023-01-12T15:27:18.988Z,99372.00
2023-01-12T15:31:20.127Z,99373.07
2023-01-12T15:35:25.080Z,99363.88
2023-01-12T15:39:27.070Z,99368.24
2023-01-12T15:43:29.962Z,99372.04
2023-01-12T15:47:28.967Z,99370.46
2023-01-12T15:51:30.397Z,99371.58
2023-01-12T15:55:32.965Z,99369.22
2023-01-12T15:59:30.936Z,99366.23
2023-01-12T16:03:55.899Z,99350.69
2023-01-12T16:07:48.571Z,99359.70
2023-01-12T16:11:47.120Z,99365.73
2023-01-12T16:15:47.007Z,99359.78
2023-01-12T16:19:48.196Z,99357.10
2023-01-12T16:23:46.924Z,99359.52
2023-01-12T16:27:44.913Z,99361.00
2023-01-12T16:31:42.922Z,99358.23
2023-01-12T16:35:41.174Z,99358.98
2023-01-12T16:39:39.105Z,99358.95
2023-01-12T16:43:37.424Z,99352.56
2023-01-12T16:47:36.083Z,99350.02
2023-01-12T16:51:33.963Z,99345.84
2023-01-12T16:55:31.896Z,99335.09
2023-01-12T16:59:29.925Z,99329.60
2023-01-12T17:03:27.970Z,99325.95
2023-01-12T17:07:25.857Z,99322.00
2023-01-12T17:11:25.816Z,99314.52
2023-01-12T17:15:24.893Z,99302.91
2023-01-12T17:19:23.143Z,99296.33
2023-01-12T17:23:20.830Z,99300.11
2023-01-12T17:27:18.942Z,99300.16
2023-01-12T17:31:29.836Z,99299.72
2023-01-12T17:35:27.805Z,99289.92
2023-01-12T17:39:25.815Z,99278.55
2023-01-12T17:43:25.771Z,99273.48
2023-01-12T17:47:24.933Z,99278.30
2023-01-12T17:51:22.899Z,99276.61
2023-01-12T17:55:20.832Z,99277.56
2023-01-12T17:59:19.775Z,99287.54
2023-01-12T18:03:17.989Z,99291.11
2023-01-12T18:07:15.760Z,99295.70
2023-01-12T18:11:21.812Z,99291.00
2023-01-12T18:15:20.728Z,99283.73
2023-01-12T18:19:21.774Z,99284.98
2023-01-12T18:23:19.767Z,99283.25
2023-01-12T18:27:18.765Z,99283.52
2023-01-12T18:31:22.801Z,99285.34
2023-01-12T18:35:21.745Z,99289.71
2023-01-12T18:39:22.768Z,99298.98
2023-01-12T18:43:20.787Z,99300.98
2023-01-12T18:47:35.764Z,99304.17
2023-01-12T18:51:52.811Z,99299.42
2023-01-12T18:55:50.777Z,99298.02
2023-01-12T18:59:49.775Z,99295.65
2023-01-12T19:03:47.801Z,99293.88
2023-01-12T19:07:57.702Z,99299.52
2023-01-12T19:11:55.819Z,99297.56
2023-01-12T19:16:11.864Z,99296.68
2023-01-12T19:20:21.965Z,99289.33
2023-01-12T19:24:36.827Z,99284.92
2023-01-12T19:28:41.677Z,99287.07
2023-01-12T19:32:39.892Z,99285.55
2023-01-12T19:36:37.645Z,99289.47
2023-01-12T19:40:41.740Z,99288.84
2023-01-12T19:44:39.634Z,99291.40
2023-01-12T19:48:39.652Z,99291.14
2023-01-12T19:52:37.739Z,99286.95
2023-01-12T19:56:35.958Z,99283.61
2023-01-12T20:00:33.598Z,99286.75
2023-01-12T20:04:31.714Z,99279.55
2023-01-12T20:08:29.624Z,99272.83
2023-01-12T20:12:28.740Z,99274.05
2023-01-12T20:16:27.816Z,99270.30
2023-01-12T20:20:26.653Z,99267.65
2023-01-12T20:24:26.683Z,99264.96
2023-01-12T20:28:28.478Z,99267.61
2023-01-12T20:32:26.656Z,99278.33
2023-01-12T20:36:25.601Z,99273.25
2023-01-12T20:40:25.654Z,99267.34
2023-01-12T20:44:28.781Z,99264.46
2023-01-12T20:48:26.646Z,99267.90
2023-01-12T20:52:25.575Z,99270.12
2023-01-12T20:56:25.542Z,99271.16
2023-01-12T21:00:25.614Z,99270.30
2023-01-12T21:04:25.527Z,99268.85
2023-01-12T21:08:23.580Z,99261.47
2023-01-12T21:12:21.576Z,99260.21
2023-01-12T21:16:21.538Z,99262.84
2023-01-12T21:20:24.533Z,99260.48
2023-01-12T21:24:22.580Z,99264.17
2023-01-12T21:28:20.455Z,99258.86
2023-01-12T21:32:18.552Z,99258.64
2023-01-12T21:36:17.479Z,99258.14
2023-01-12T21:40:15.537Z,99249.88
2023-01-12T21:44:15.550Z,99249.42
2023-01-12T21:48:13.564Z,99254.29
2023-01-12T21:52:11.526Z,99263.33
2023-01-12T21:56:11.749Z,99259.55
2023-01-12T22:00:09.452Z,99259.92
2023-01-12T22:04:10.588Z,99259.27
2023-01-12T22:08:08.423Z,99258.87
2023-01-12T22:12:06.441Z,99256.83
2023-01-12T22:16:04.815Z,99252.40
2023-01-12T22:20:03.465Z,99247.45
2023-01-12T22:24:01.475Z,99239.05
2023-01-12T22:27:59.507Z,99241.58
2023-01-12T22:31:57.513Z,99243.75
2023-01-12T22:35:56.542Z,99238.86
2023-01-12T22:39:54.447Z,99231.86
2023-01-12T22:43:52.412Z,99230.63
2023-01-12T22:47:50.474Z,99231.30
2023-01-12T22:51:48.466Z,99222.89
2023-01-12T22:55:46.383Z,99217.55
2023-01-12T22:59:44.441Z,99220.09
2023-01-12T23:03:42.500Z,99216.83
2023-01-12T23:07:41.415Z,99215.73
2023-01-12T23:11:42.452Z,99212.35
2023-01-12T23:15:40.369Z,99211.29
2023-01-12T23:19:38.353Z,99212.55
2023-01-12T23:23:37.426Z,99208.29
2023-01-12T23:27:36.374Z,99210.22
2023-01-12T23:31:36.381Z,99212.42
2023-01-12T23:35:34.319Z,99212.39
2023-01-12T23:39:34.692Z,99210.76
2023-01-12T23:43:32.315Z,99209.16
2023-01-12T23:47:31.634Z,99211.90
2023-01-12T23:51:31.320Z,99204.79
2023-01-12T23:55:29.522Z,99199.27
2023-01-12T23:59:27.301Z,99197.75
